Time;durP1;ratioP1;P1;durP2;ratioP2;P2;SDS_P1;SDS_P2;PMS_P1;PMS_P2;Temp;Humidity;BMP_temperature;BMP_pressure;BME280_temperature;BME280_humidity;BME280_pressure;Samples;Min_cycle;Max_cycle;Signal;HPM_P1;HPM_P2
2022/03/27 00:00:43;;;;;;;1.10;0.97;;;;;;;4.87;41.25;97134.63;4995276;28;20509;-75
2022/03/27 00:03:08;;;;;;;0.83;0.83;;;;;;;4.81;40.96;97129.31;4995317;28;20390;-75
2022/03/27 00:05:34;;;;;;;2.23;1.10;;;;;;;4.95;40.99;97131.13;4978985;28;20048;-76
2022/03/27 00:08:00;;;;;;;1.57;1.23;;;;;;;5.03;40.12;97137.06;4979252;28;20054;-73
2022/03/27 00:10:26;;;;;;;1.00;0.90;;;;;;;5.06;40.71;97134.06;5028363;28;20046;-73
2022/03/27 00:12:52;;;;;;;1.43;0.90;;;;;;;5.03;40.88;97131.81;4963083;28;20072;-73
2022/03/27 00:15:18;;;;;;;1.23;0.70;;;;;;;5.03;41.73;97146.78;5011603;28;20497;-74
2022/03/27 00:17:44;;;;;;;3.40;1.00;;;;;;;5.12;42.63;97143.03;4978828;28;20050;-74
2022/03/27 00:20:12;;;;;;;3.47;1.00;;;;;;;5.11;43.09;97136.16;5011277;28;20137;-74
2022/03/27 00:22:39;;;;;;;2.40;1.07;;;;;;;4.84;43.30;97140.25;4994994;28;20046;-75
2022/03/27 00:25:06;;;;;;;1.37;0.80;;;;;;;5.02;43.79;97121.47;4978865;28;20042;-75
2022/03/27 00:27:33;;;;;;;1.10;1.00;;;;;;;4.84;43.53;97139.47;5011195;28;20049;-75
2022/03/27 00:29:59;;;;;;;1.30;1.10;;;;;;;4.82;43.27;97113.34;4962785;28;20375;-76
2022/03/27 00:32:25;;;;;;;1.63;0.90;;;;;;;4.69;42.87;97142.09;4978081;28;20053;-76
2022/03/27 00:34:53;;;;;;;1.00;0.90;;;;;;;4.79;42.38;97145.28;4994940;28;20050;-72
2022/03/27 00:37:19;;;;;;;0.90;0.90;;;;;;;4.83;42.47;97132.56;4978332;28;20919;-73
2022/03/27 00:39:46;;;;;;;1.17;0.83;;;;;;;4.90;41.33;97136.94;5010853;28;20088;-74
2022/03/27 00:42:12;;;;;;;1.47;1.00;;;;;;;4.75;41.36;97140.56;4962559;28;20037;-74
2022/03/27 00:44:38;;;;;;;1.57;0.90;;;;;;;4.59;41.16;97109.19;4978394;28;20115;-74
2022/03/27 00:47:06;;;;;;;1.13;0.90;;;;;;;4.54;41.51;97127.31;4977783;28;20080;-75
2022/03/27 00:49:33;;;;;;;0.80;0.80;;;;;;;4.70;41.75;97141.13;4992814;28;20476;-75
2022/03/27 00:51:59;;;;;;;2.73;0.70;;;;;;;4.62;41.61;97150.88;4976446;28;20100;-77
2022/03/27 00:54:25;;;;;;;3.47;1.10;;;;;;;4.74;41.44;97157.31;5008564;28;20050;-76
2022/03/27 00:56:51;;;;;;;1.50;1.10;;;;;;;4.63;41.45;97147.25;5008389;28;20520;-76
2022/03/27 00:59:17;;;;;;;2.57;0.87;;;;;;;4.72;41.80;97167.22;4992011;28;20050;-76
2022/03/27 01:01:44;;;;;;;0.90;0.90;;;;;;;4.78;41.91;97155.97;4991949;28;20053;-77
2022/03/27 01:04:10;;;;;;;3.20;1.03;;;;;;;4.80;42.08;97153.97;4993987;28;20426;-78
2022/03/27 01:06:43;;;;;;;2.80;0.93;;;;;;;5.03;41.96;97158.13;5010616;28;20129;-80
2022/03/27 01:09:35;;;;;;;2.97;1.00;;;;;;;4.73;42.07;97137.28;5010693;28;20092;-77
2022/03/27 01:12:22;;;;;;;1.30;1.20;;;;;;;4.91;42.30;97166.66;4978042;28;20037;-75
2022/03/27 01:14:49;;;;;;;0.90;0.80;;;;;;;4.78;42.66;97167.28;5026362;28;20049;-77
2022/03/27 01:17:24;;;;;;;1.07;0.97;;;;;;;4.84;42.37;97160.50;4978069;28;20049;-78
2022/03/27 01:19:54;;;;;;;1.53;0.80;;;;;;;4.59;42.89;97167.84;4994013;28;20049;-77
2022/03/27 01:22:21;;;;;;;4.63;1.00;;;;;;;4.54;43.17;97153.59;5010488;28;20049;-75
2022/03/27 01:24:48;;;;;;;0.70;0.70;;;;;;;4.58;43.34;97154.88;5010048;28;20045;-76
2022/03/27 01:27:14;;;;;;;3.03;0.80;;;;;;;4.52;43.37;97159.03;4961782;28;20116;-72
2022/03/27 01:29:40;;;;;;;1.67;0.90;;;;;;;4.42;43.59;97149.78;5010133;28;20041;-73
2022/03/27 01:32:08;;;;;;;1.73;0.87;;;;;;;4.69;43.73;97172.84;4993941;28;20458;-73
2022/03/27 01:34:34;;;;;;;1.80;1.00;;;;;;;4.58;43.64;97173.28;5010010;28;20042;-73
2022/03/27 01:37:04;;;;;;;1.30;0.90;;;;;;;4.66;43.56;97167.91;4994138;28;20056;-73
2022/03/27 01:39:32;;;;;;;1.25;0.95;;;;;;;4.53;44.30;97173.81;4977939;28;20148;-72
2022/03/27 01:41:58;;;;;;;1.53;0.90;;;;;;;4.58;43.98;97168.03;4977590;28;20525;-72
2022/03/27 01:44:24;;;;;;;1.10;0.93;;;;;;;4.55;43.68;97165.75;4993343;28;20073;-72
2022/03/27 01:46:49;;;;;;;1.50;1.20;;;;;;;4.44;43.91;97181.97;4977479;28;20046;-72
2022/03/27 01:49:16;;;;;;;1.17;1.07;;;;;;;4.49;43.96;97174.38;4993570;28;20046;-72
2022/03/27 01:51:46;;;;;;;2.43;1.20;;;;;;;4.73;43.53;97177.56;4960574;28;20468;-72
2022/03/27 01:54:13;;;;;;;1.50;1.40;;;;;;;4.64;43.25;97168.09;4977252;28;20042;-73
2022/03/27 01:56:40;;;;;;;2.03;1.10;;;;;;;4.54;43.66;97185.13;4993263;28;20050;-72
2022/03/27 01:59:07;;;;;;;1.40;1.30;;;;;;;4.57;43.63;97182.16;5010004;28;20487;-72
2022/03/27 02:01:34;;;;;;;1.60;1.50;;;;;;;4.39;43.84;97193.00;4977484;28;20049;-76
2022/03/27 02:04:03;;;;;;;2.07;1.40;;;;;;;4.43;43.83;97185.56;5010044;28;20037;-72
2022/03/27 02:06:30;;;;;;;1.13;1.03;;;;;;;4.40;43.67;97207.78;4962411;28;20528;-73
2022/03/27 02:08:58;;;;;;;1.00;0.90;;;;;;;4.27;43.82;97178.69;4977271;28;20498;-74
2022/03/27 02:11:24;;;;;;;1.53;1.20;;;;;;;4.25;43.69;97206.09;4993377;28;20070;-74
2022/03/27 02:13:51;;;;;;;1.27;1.10;;;;;;;4.27;43.45;97196.25;4993103;28;20073;-74
2022/03/27 02:16:17;;;;;;;2.13;1.13;;;;;;;4.28;43.62;97193.44;4993367;28;20450;-74
2022/03/27 02:18:44;;;;;;;1.27;1.00;;;;;;;4.42;43.50;97197.09;4993183;28;20053;-73
2022/03/27 02:21:10;;;;;;;0.90;0.90;;;;;;;4.37;42.95;97197.63;5026161;28;20057;-72
2022/03/27 02:23:36;;;;;;;1.30;1.00;;;;;;;4.39;43.16;97203.53;4993142;28;20053;-76
2022/03/27 02:26:03;;;;;;;1.73;1.10;;;;;;;4.43;43.24;97210.03;4959201;28;20050;-75
2022/03/27 02:28:29;;;;;;;3.10;1.00;;;;;;;4.34;43.23;97212.91;4958704;28;20041;-75
2022/03/27 02:30:55;;;;;;;1.53;0.80;;;;;;;4.39;43.06;97219.28;5007194;28;20038;-77
2022/03/27 02:33:21;;;;;;;3.00;1.20;;;;;;;4.41;43.15;97222.53;5007396;28;20050;-75
2022/03/27 02:35:47;;;;;;;1.57;0.80;;;;;;;4.52;43.51;97218.69;4974770;28;20513;-75
2022/03/27 02:38:12;;;;;;;0.70;0.70;;;;;;;4.24;43.84;97213.19;4974502;28;20072;-74
2022/03/27 02:40:39;;;;;;;5.03;1.00;;;;;;;4.42;43.94;97229.44;4990794;28;20144;-75
2022/03/27 02:43:05;;;;;;;1.07;0.70;;;;;;;4.27;44.05;97222.50;4977127;28;20046;-74
2022/03/27 02:45:32;;;;;;;0.60;0.60;;;;;;;4.25;44.00;97238.44;4961261;28;20053;-74
2022/03/27 02:47:59;;;;;;;0.80;0.70;;;;;;;4.37;44.50;97231.78;4945026;28;20074;-74
2022/03/27 02:50:26;;;;;;;2.27;0.83;;;;;;;4.44;45.15;97245.03;5009408;28;20049;-74
2022/03/27 02:52:53;;;;;;;0.80;0.80;;;;;;;4.43;45.18;97241.56;4976405;28;20046;-74
2022/03/27 02:55:20;;;;;;;1.97;1.03;;;;;;;4.50;45.14;97234.63;4944021;28;20048;-75
2022/03/27 02:57:46;;;;;;;2.00;1.10;;;;;;;4.30;45.47;97246.63;4978194;28;20041;-75
2022/03/27 03:00:12;;;;;;;4.97;1.30;;;;;;;4.28;44.90;97245.97;5010746;28;20050;-74
2022/03/27 03:02:38;;;;;;;5.07;1.00;;;;;;;4.30;45.37;97240.56;5010366;28;20045;-76
2022/03/27 03:05:05;;;;;;;0.87;0.87;;;;;;;4.25;44.90;97243.72;4978415;28;20046;-75
2022/03/27 03:07:35;;;;;;;2.43;0.80;;;;;;;4.33;44.84;97238.41;5010654;28;20073;-75
2022/03/27 03:10:02;;;;;;;3.60;1.42;;;;;;;4.35;44.95;97253.97;4961639;28;20424;-73
2022/03/27 03:12:29;;;;;;;1.43;0.80;;;;;;;4.28;44.94;97251.22;5012540;28;20510;-74
2022/03/27 03:14:56;;;;;;;1.23;0.80;;;;;;;4.36;44.96;97260.84;4980015;28;20132;-75
2022/03/27 03:17:23;;;;;;;1.20;1.00;;;;;;;4.48;44.37;97264.69;5012550;28;20041;-74
2022/03/27 03:19:49;;;;;;;2.63;0.77;;;;;;;4.44;44.08;97277.38;4980124;28;20049;-75
2022/03/27 03:22:15;;;;;;;1.63;0.80;;;;;;;4.43;43.81;97270.47;5012394;28;20100;-74
2022/03/27 03:24:45;;;;;;;2.70;0.80;;;;;;;4.39;43.57;97287.59;4979781;28;20080;-75
2022/03/27 03:27:13;;;;;;;2.40;1.35;;;;;;;4.38;43.14;97296.47;5012503;28;20227;-73
2022/03/27 03:29:39;;;;;;;1.53;0.97;;;;;;;4.45;43.37;97288.69;4963776;28;20148;-75
2022/03/27 03:32:06;;;;;;;1.00;0.80;;;;;;;4.43;43.44;97293.31;4980175;28;20065;-73
2022/03/27 03:34:32;;;;;;;1.03;0.83;;;;;;;4.35;43.33;97296.81;5028784;28;20136;-75
2022/03/27 03:36:57;;;;;;;1.87;1.00;;;;;;;4.40;43.71;97298.91;4979666;28;20548;-73
2022/03/27 03:39:23;;;;;;;1.03;0.80;;;;;;;4.38;43.13;97314.06;4979425;28;20069;-75
2022/03/27 03:41:50;;;;;;;1.43;1.00;;;;;;;4.45;43.42;97314.97;4996222;28;20053;-74
2022/03/27 03:44:17;;;;;;;1.53;0.87;;;;;;;4.50;43.28;97300.31;4995424;28;20045;-74
2022/03/27 03:46:44;;;;;;;2.67;0.83;;;;;;;4.44;43.06;97297.59;4995346;28;20050;-74
2022/03/27 03:49:10;;;;;;;2.93;1.07;;;;;;;4.45;42.73;97330.72;5012279;28;20045;-78
2022/03/27 03:51:39;;;;;;;4.57;1.43;;;;;;;4.39;42.68;97344.59;4979724;28;20050;-73
2022/03/27 03:54:08;;;;;;;0.87;0.87;;;;;;;4.24;42.38;97347.16;4995988;28;20560;-72
2022/03/27 03:56:35;;;;;;;11.50;1.20;;;;;;;4.30;41.80;97349.09;4995547;28;20049;-72
2022/03/27 03:59:01;;;;;;;4.00;1.17;;;;;;;4.10;40.90;97360.19;4995690;28;20056;-72
2022/03/27 04:01:27;;;;;;;2.77;1.20;;;;;;;4.09;40.97;97359.38;4947177;28;20046;-73
2022/03/27 04:03:53;;;;;;;3.03;1.00;;;;;;;4.03;40.61;97364.53;4995417;28;20109;-73
2022/03/27 04:06:22;;;;;;;1.73;1.00;;;;;;;4.13;40.70;97367.75;4995248;28;20418;-74
2022/03/27 04:08:48;;;;;;;1.23;1.00;;;;;;;4.18;40.48;97378.56;4995347;28;20506;-75
2022/03/27 04:11:17;;;;;;;1.87;1.17;;;;;;;4.08;39.32;97380.56;4995376;28;20468;-74
2022/03/27 04:13:43;;;;;;;1.23;0.90;;;;;;;4.24;39.16;97402.31;4995666;28;20099;-74
2022/03/27 04:16:10;;;;;;;2.70;1.20;;;;;;;4.21;38.37;97388.72;4963471;28;20048;-73
2022/03/27 04:18:36;;;;;;;6.13;1.10;;;;;;;3.85;38.70;97377.88;5011715;28;20049;-73
2022/03/27 04:21:03;;;;;;;3.87;0.90;;;;;;;3.98;39.35;97369.47;4962858;28;20413;-72
2022/03/27 04:23:29;;;;;;;1.10;1.00;;;;;;;4.07;38.60;97402.56;4994892;28;20457;-73
2022/03/27 04:25:55;;;;;;;1.53;1.00;;;;;;;3.81;38.38;97387.09;4978596;28;20041;-73
2022/03/27 04:28:21;;;;;;;1.30;0.90;;;;;;;3.96;38.29;97421.31;4978707;28;20046;-73
2022/03/27 04:30:49;;;;;;;2.80;0.93;;;;;;;4.07;38.27;97423.56;5027177;28;20041;-73
2022/03/27 04:33:16;;;;;;;1.93;0.90;;;;;;;4.11;38.24;97419.59;4978687;28;20421;-73
2022/03/27 04:35:43;;;;;;;2.83;1.07;;;;;;;4.05;37.92;97417.66;5027849;28;20453;-73
2022/03/27 04:38:09;;;;;;;2.30;0.97;;;;;;;4.10;37.61;97444.25;4988461;28;20062;-73
2022/03/27 04:40:36;;;;;;;0.90;0.90;;;;;;;4.21;37.96;97459.63;4939866;28;20074;-72
2022/03/27 04:43:03;;;;;;;5.13;1.23;;;;;;;4.07;38.03;97447.22;4987988;28;20050;-75
2022/03/27 04:45:29;;;;;;;1.33;0.90;;;;;;;3.93;37.83;97479.44;4955873;28;20042;-72
2022/03/27 04:47:55;;;;;;;3.97;0.90;;;;;;;3.85;37.83;97468.94;4955781;28;20112;-72
2022/03/27 04:50:21;;;;;;;1.00;0.80;;;;;;;3.87;37.74;97467.81;4939844;28;20053;-74
2022/03/27 04:52:48;;;;;;;1.03;1.00;;;;;;;3.91;37.37;97471.72;4971859;28;20042;-74
2022/03/27 04:55:16;;;;;;;0.80;0.80;;;;;;;4.03;37.20;97491.38;4940556;28;20046;-73
2022/03/27 04:57:43;;;;;;;2.73;0.93;;;;;;;4.08;37.07;97488.22;4955922;28;20521;-73
2022/03/27 05:00:15;;;;;;;2.47;1.17;;;;;;;4.31;37.31;97487.31;4940104;28;20047;-75
2022/03/27 05:02:42;;;;;;;0.93;0.80;;;;;;;4.19;37.01;97464.22;4971690;28;20050;-75
2022/03/27 05:05:10;;;;;;;3.40;0.90;;;;;;;4.27;36.80;97501.81;4971223;28;20053;-75
2022/03/27 05:07:37;;;;;;;5.30;0.93;;;;;;;4.22;36.65;97504.13;4971392;28;20054;-73
2022/03/27 05:10:08;;;;;;;1.40;0.97;;;;;;;4.42;36.00;97512.41;4987494;28;20969;-72
2022/03/27 05:12:43;;;;;;;1.40;1.10;;;;;;;4.11;35.90;97493.97;4956892;28;20426;-74
2022/03/27 05:15:11;;;;;;;1.63;0.80;;;;;;;4.29;35.99;97505.06;4939757;28;20048;-75
2022/03/27 05:17:56;;;;;;;4.60;1.33;;;;;;;4.46;35.31;97490.84;4939255;28;20051;-73
2022/03/27 05:20:22;;;;;;;1.63;1.10;;;;;;;4.58;35.07;97521.00;4955481;28;20133;-74
2022/03/27 05:22:52;;;;;;;6.33;0.97;;;;;;;4.34;34.42;97500.13;4971362;28;20570;-73
2022/03/27 05:25:19;;;;;;;1.37;0.93;;;;;;;4.33;34.21;97526.56;4986703;28;20055;-74
2022/03/27 05:27:46;;;;;;;2.50;1.07;;;;;;;4.53;34.23;97533.88;4986814;28;20121;-75
2022/03/27 05:30:22;;;;;;;2.27;0.90;;;;;;;4.56;33.13;97511.69;4971702;28;20042;-74
2022/03/27 05:32:48;;;;;;;1.43;0.80;;;;;;;4.57;33.17;97515.94;4971088;28;20408;-75
2022/03/27 05:35:14;;;;;;;4.63;2.37;;;;;;;4.31;32.89;97529.38;4955619;28;20051;-75
2022/03/27 05:37:42;;;;;;;2.47;1.07;;;;;;;4.66;32.89;97552.53;4941737;28;20039;-74
2022/03/27 05:40:10;;;;;;;4.20;1.27;;;;;;;4.78;31.83;97545.88;5010221;28;20488;-75
2022/03/27 05:42:38;;;;;;;3.17;0.97;;;;;;;4.97;31.72;97548.09;5009869;28;20096;-74
2022/03/27 05:45:05;;;;;;;3.27;2.03;;;;;;;5.06;31.82;97554.09;4977287;28;20050;-74
2022/03/27 05:47:35;;;;;;;1.10;1.00;;;;;;;5.03;31.35;97526.34;5010038;28;20054;-75
2022/03/27 05:50:00;;;;;;;1.67;1.10;;;;;;;5.29;30.97;97562.81;5009850;28;20053;-72
2022/03/27 05:52:26;;;;;;;2.87;1.20;;;;;;;5.27;30.09;97590.31;4977305;28;20046;-73
2022/03/27 05:54:52;;;;;;;0.80;0.80;;;;;;;5.26;30.11;97565.81;4992884;28;20119;-73
2022/03/27 05:57:19;;;;;;;1.93;1.40;;;;;;;5.42;29.79;97570.97;4977460;28;20107;-74
2022/03/27 05:59:45;;;;;;;1.70;1.20;;;;;;;5.73;29.78;97579.63;4977445;28;20425;-74
2022/03/27 06:02:12;;;;;;;1.87;1.20;;;;;;;5.87;28.98;97578.03;4993409;28;20051;-73
2022/03/27 06:04:38;;;;;;;1.93;1.10;;;;;;;6.11;29.35;97589.16;5025988;28;20042;-74
2022/03/27 06:07:07;;;;;;;0.90;0.90;;;;;;;6.30;28.81;97590.47;4977228;28;20045;-74
2022/03/27 06:09:33;;;;;;;1.43;1.33;;;;;;;6.12;28.36;97600.53;4993442;28;20053;-74
2022/03/27 06:11:59;;;;;;;1.33;1.10;;;;;;;6.02;29.11;97592.88;4993298;28;20049;-75
2022/03/27 06:14:32;;;;;;;2.33;1.20;;;;;;;5.81;30.09;97582.16;4962015;28;20136;-75
2022/03/27 06:16:58;;;;;;;3.37;1.63;;;;;;;5.58;30.72;97586.63;4977211;28;20137;-75
2022/03/27 06:19:24;;;;;;;2.80;1.30;;;;;;;5.41;31.62;97597.47;4992718;28;20054;-75
2022/03/27 06:21:50;;;;;;;4.83;1.23;;;;;;;5.30;32.37;97595.25;4977093;28;20046;-76
2022/03/27 06:24:16;;;;;;;3.30;1.30;;;;;;;5.22;33.59;97617.16;4976991;28;20133;-73
2022/03/27 06:26:42;;;;;;;1.60;1.10;;;;;;;5.04;34.06;97646.34;4993329;28;20060;-73
2022/03/27 06:29:11;;;;;;;11.43;1.50;;;;;;;4.81;36.06;97644.66;4976956;28;20056;-78
2022/03/27 06:31:38;;;;;;;4.07;1.50;;;;;;;4.62;36.42;97618.75;4996157;28;20143;-77
2022/03/27 06:34:05;;;;;;;7.90;1.57;;;;;;;4.71;36.22;97625.63;4997135;28;20089;-77
2022/03/27 06:36:37;;;;;;;4.00;1.48;;;;;;;4.64;35.40;97640.44;5013408;28;20200;-77
2022/03/27 06:39:04;;;;;;;2.63;1.33;;;;;;;4.83;35.04;97632.16;4997005;28;20092;-76
2022/03/27 06:41:30;;;;;;;8.70;3.53;;;;;;;4.63;34.93;97644.03;4980676;28;20050;-75
2022/03/27 06:43:57;;;;;;;5.53;1.60;;;;;;;4.68;34.52;97666.22;4980326;28;20049;-75
2022/03/27 06:46:27;;;;;;;2.13;1.13;;;;;;;4.83;34.04;97661.06;4980631;28;20076;-76
2022/03/27 06:48:55;;;;;;;3.03;0.88;;;;;;;4.57;33.45;97636.84;4996773;28;20073;-75
2022/03/27 06:51:21;;;;;;;3.90;1.10;;;;;;;4.82;32.92;97668.16;4996654;28;20144;-75
2022/03/27 06:53:47;;;;;;;1.13;1.00;;;;;;;4.92;32.38;97676.66;4964664;28;20181;-75
2022/03/27 06:56:13;;;;;;;1.90;1.40;;;;;;;4.88;32.26;97674.53;5013182;28;20045;-75
2022/03/27 06:58:39;;;;;;;5.13;1.20;;;;;;;4.51;32.32;97655.91;4996983;28;20599;-70
2022/03/27 07:03:50;;;;;;;1.23;0.80;;;;;;;4.55;31.95;97718.50;5013239;28;20505;-68
2022/03/27 07:06:17;;;;;;;1.33;1.03;;;;;;;4.78;31.63;97705.47;4980496;28;20153;-68
2022/03/27 07:08:43;;;;;;;5.37;1.20;;;;;;;4.98;31.64;97725.94;4964264;28;20049;-67
2022/03/27 07:11:09;;;;;;;2.83;1.20;;;;;;;5.05;32.03;97705.06;4980246;28;20049;-67
2022/03/27 07:13:35;;;;;;;2.67;1.00;;;;;;;4.97;32.90;97731.38;4964001;28;20046;-69
2022/03/27 07:16:02;;;;;;;8.37;1.20;;;;;;;4.77;33.14;97719.59;4980105;28;20415;-73
2022/03/27 07:18:29;;;;;;;6.77;1.30;;;;;;;4.80;33.56;97727.97;5013101;28;20053;-70
2022/03/27 07:20:55;;;;;;;7.53;1.77;;;;;;;4.59;33.39;97735.59;4976483;28;20046;-67
2022/03/27 07:23:22;;;;;;;4.77;1.53;;;;;;;4.58;32.70;97741.81;5003048;28;20062;-65
2022/03/27 07:25:50;;;;;;;1.30;1.20;;;;;;;4.66;31.70;97786.50;4984572;28;20079;-67
2022/03/27 07:28:18;;;;;;;2.67;1.07;;;;;;;4.64;31.13;97740.34;4983777;28;20133;-70
2022/03/27 07:30:48;;;;;;;3.83;1.10;;;;;;;4.87;30.44;97765.75;4985693;28;20070;-68
2022/03/27 07:33:15;;;;;;;2.90;1.70;;;;;;;5.08;30.41;97773.09;4952022;28;20146;-69
2022/03/27 07:35:41;;;;;;;1.43;1.00;;;;;;;5.15;29.58;97782.78;4985284;28;20038;-69
2022/03/27 07:38:08;;;;;;;2.67;1.30;;;;;;;5.34;29.33;97776.31;4957796;28;20113;-67
2022/03/27 07:40:34;;;;;;;2.53;1.20;;;;;;;5.33;28.28;97777.31;4982298;28;20513;-69
2022/03/27 07:43:00;;;;;;;1.30;1.20;;;;;;;5.63;27.99;97767.81;4990691;28;20046;-70
2022/03/27 07:45:29;;;;;;;3.53;1.10;;;;;;;6.21;27.03;97781.31;4951900;28;20041;-69
2022/03/27 07:47:55;;;;;;;2.20;0.80;;;;;;;6.30;26.88;97773.16;4972314;28;20034;-69
2022/03/27 07:50:23;;;;;;;1.40;1.27;;;;;;;6.30;26.77;97793.41;4958558;28;20096;-67
2022/03/27 07:52:49;;;;;;;2.50;1.10;;;;;;;6.04;27.44;97798.22;4985836;28;20089;-70
2022/03/27 07:55:17;;;;;;;2.50;1.20;;;;;;;6.05;28.27;97811.22;4991843;28;20042;-70
2022/03/27 07:57:43;;;;;;;4.30;1.33;;;;;;;5.68;29.11;97786.50;5000476;28;20518;-71
2022/03/27 08:00:11;;;;;;;1.87;1.67;;;;;;;5.80;29.13;97804.41;4990132;28;20056;-71
2022/03/27 08:02:41;;;;;;;6.43;1.35;;;;;;;5.58;28.91;97807.78;5009204;28;20049;-70
2022/03/27 08:05:08;;;;;;;3.03;1.40;;;;;;;5.75;28.96;97811.97;4984880;28;20188;-69
2022/03/27 08:07:34;;;;;;;4.27;1.40;;;;;;;5.54;28.46;97817.03;4983092;28;20042;-70
2022/03/27 08:10:00;;;;;;;4.03;1.20;;;;;;;5.66;28.33;97834.09;4992775;28;20532;-71
2022/03/27 08:12:29;;;;;;;4.80;1.20;;;;;;;5.64;28.32;97809.75;4985413;28;20040;-74
2022/03/27 08:14:55;;;;;;;1.93;1.10;;;;;;;5.61;28.76;97835.59;4993936;28;20045;-68
2022/03/27 08:17:21;;;;;;;4.03;1.17;;;;;;;5.38;29.84;97850.50;4995131;28;20042;-69
2022/03/27 08:19:49;;;;;;;2.83;1.27;;;;;;;5.24;29.97;97817.81;4996608;28;20065;-69
2022/03/27 08:22:15;;;;;;;1.73;1.30;;;;;;;5.50;29.90;97834.16;5010244;28;20041;-68
2022/03/27 08:24:41;;;;;;;4.10;1.20;;;;;;;5.65;29.49;97843.00;4994452;28;20505;-70
2022/03/27 08:27:09;;;;;;;6.07;1.40;;;;;;;5.69;28.71;97843.47;4994323;28;20413;-63
2022/03/27 08:29:39;;;;;;;3.00;1.60;;;;;;;5.83;29.04;97872.56;4991037;28;20141;-70
2022/03/27 08:32:13;;;;;;;7.10;2.23;;;;;;;5.88;30.48;97862.34;4991446;28;20130;-70
2022/03/27 08:34:41;;;;;;;4.63;1.27;;;;;;;5.72;30.52;97866.84;4959216;28;20085;-71
2022/03/27 08:37:09;;;;;;;1.67;1.13;;;;;;;5.63;30.98;97868.66;4974723;28;20053;-68
2022/03/27 08:39:36;;;;;;;1.80;1.13;;;;;;;5.65;30.69;97853.53;4974747;28;20518;-68
2022/03/27 08:42:02;;;;;;;5.37;1.40;;;;;;;5.73;30.35;97866.66;4990957;28;20045;-68
2022/03/27 08:44:30;;;;;;;4.23;1.20;;;;;;;5.70;29.49;97874.91;4990909;28;20050;-68
2022/03/27 08:46:58;;;;;;;2.27;1.50;;;;;;;5.80;29.00;97867.63;4990467;28;20049;-69
2022/03/27 08:49:32;;;;;;;2.43;1.30;;;;;;;5.87;28.44;97875.69;4990942;28;20132;-70
2022/03/27 08:52:08;;;;;;;9.10;1.30;;;;;;;6.24;28.08;97875.84;4958619;28;20085;-68
2022/03/27 08:54:54;;;;;;;5.40;1.30;;;;;;;6.23;28.65;97874.16;4990648;28;20128;-68
2022/03/27 08:57:24;;;;;;;3.43;1.20;;;;;;;5.81;28.83;97907.94;4958334;28;20043;-69
2022/03/27 08:59:54;;;;;;;1.10;1.00;;;;;;;5.64;29.22;97880.03;4974660;28;20050;-68
2022/03/27 09:02:23;;;;;;;3.30;1.10;;;;;;;5.47;29.43;97867.91;4991288;28;20042;-68
2022/03/27 09:04:53;;;;;;;5.30;1.33;;;;;;;5.94;28.23;97897.72;5002988;28;20652;-70
2022/03/27 09:07:23;;;;;;;1.60;1.20;;;;;;;5.71;28.19;97908.13;4993885;28;20053;-69
2022/03/27 09:09:49;;;;;;;2.33;1.10;;;;;;;5.53;29.23;97915.44;4993462;28;20052;-69
2022/03/27 09:12:15;;;;;;;2.60;1.37;;;;;;;5.80;28.63;97925.56;5010417;28;20042;-68
2022/03/27 09:14:42;;;;;;;8.07;1.40;;;;;;;5.83;28.30;97927.06;5010327;28;20118;-68
2022/03/27 09:17:08;;;;;;;5.30;1.40;;;;;;;6.05;27.39;97929.78;4993327;28;20049;-67
2022/03/27 09:19:43;;;;;;;2.20;1.20;;;;;;;7.44;25.72;97922.34;4993191;28;20390;-67
2022/03/27 09:22:14;;;;;;;1.17;0.93;;;;;;;7.82;24.82;97939.81;4994070;28;20049;-67
2022/03/27 09:24:42;;;;;;;1.60;1.10;;;;;;;7.65;25.02;97932.22;4993848;28;20077;-68
2022/03/27 09:27:08;;;;;;;1.13;1.00;;;;;;;7.32;25.43;97950.22;4973237;28;20046;-68
2022/03/27 09:29:59;;;;;;;9.63;2.17;;;;;;;7.36;25.66;97937.47;4976884;28;20482;-68
2022/03/27 09:32:30;;;;;;;1.87;1.20;;;;;;;6.95;27.14;97952.81;4976049;28;20041;-73
2022/03/27 09:35:09;;;;;;;1.55;1.10;;;;;;;7.12;26.85;97945.63;5010136;28;20048;-72
2022/03/27 09:37:47;;;;;;;2.73;1.30;;;;;;;6.79;27.52;97930.03;5011081;28;20532;-68
2022/03/27 09:40:15;;;;;;;8.40;4.23;;;;;;;6.74;29.04;97960.56;5010439;28;20463;-67
2022/03/27 09:42:42;;;;;;;4.57;1.57;;;;;;;6.88;28.67;97955.34;4974578;28;20050;-69
2022/03/27 09:45:10;;;;;;;2.90;2.07;;;;;;;8.59;26.46;97959.56;4992754;28;20129;-71
2022/03/27 09:47:36;;;;;;;6.50;2.03;;;;;;;10.01;24.89;97977.72;4982624;28;20069;-72
2022/03/27 09:50:02;;;;;;;8.47;1.30;;;;;;;10.03;23.09;97965.09;4981534;28;20501;-71
2022/03/27 09:52:29;;;;;;;1.83;1.07;;;;;;;9.19;24.63;97994.41;4997977;28;20398;-70
2022/03/27 09:55:09;;;;;;;6.60;1.47;;;;;;;8.79;25.60;97979.13;4985260;28;20089;-69
2022/03/27 09:57:37;;;;;;;1.20;1.10;;;;;;;8.74;26.29;97989.44;4982248;28;20065;-70
2022/03/27 10:00:13;;;;;;;2.33;1.70;;;;;;;9.47;25.05;98003.22;5000316;28;20107;-72
2022/03/27 10:02:42;;;;;;;4.22;1.30;;;;;;;10.34;24.35;97993.06;4990512;28;20041;-69
2022/03/27 10:05:13;;;;;;;2.28;1.27;;;;;;;11.53;22.36;98017.97;4992430;28;20046;-73
2022/03/27 10:07:40;;;;;;;3.65;0.93;;;;;;;11.33;22.19;98039.16;4992787;28;20042;-71
2022/03/27 10:10:08;;;;;;;7.35;1.10;;;;;;;10.72;24.46;98026.09;4973610;28;20066;-73
2022/03/27 10:12:37;;;;;;;2.72;1.20;;;;;;;9.81;25.88;98021.84;4996756;28;20042;-72
2022/03/27 10:15:15;;;;;;;3.70;2.30;;;;;;;10.65;25.16;98028.75;4982213;28;20037;-72
2022/03/27 10:18:05;;;;;;;3.67;1.30;;;;;;;12.07;21.87;98015.13;4966222;28;20081;-72
2022/03/27 10:20:34;;;;;;;2.15;1.00;;;;;;;13.18;20.25;98000.41;4997578;28;20465;-72
2022/03/27 10:23:07;;;;;;;1.20;0.70;;;;;;;13.70;19.64;98022.44;4977786;28;20434;-72
2022/03/27 10:25:40;;;;;;;3.45;1.00;;;;;;;12.91;19.59;98016.72;4972114;28;20069;-72
2022/03/27 10:28:07;;;;;;;3.13;0.90;;;;;;;11.33;23.99;98039.16;5000088;28;20052;-73
2022/03/27 10:30:33;;;;;;;8.35;1.20;;;;;;;10.41;27.58;98047.78;4992198;28;20140;-71
2022/03/27 10:33:00;;;;;;;2.97;1.20;;;;;;;9.85;28.25;98068.19;5009342;28;20092;-72
2022/03/27 10:35:35;;;;;;;4.75;1.45;;;;;;;9.79;28.80;98052.22;4992214;28;20126;-72
2022/03/27 10:38:32;;;;;;;7.88;1.13;;;;;;;9.90;27.97;98057.03;4976224;28;20061;-71
2022/03/27 10:41:09;;;;;;;2.65;1.08;;;;;;;10.40;26.48;98070.03;4975036;28;20050;-71
2022/03/27 10:43:57;;;;;;;2.05;1.25;;;;;;;11.28;23.89;98065.56;4992621;28;20049;-69
2022/03/27 10:46:25;;;;;;;3.22;1.20;;;;;;;10.91;23.47;98070.50;4992591;28;20053;-68
2022/03/27 10:49:08;;;;;;;4.28;1.63;;;;;;;10.73;23.79;98073.69;4992815;28;20053;-69
2022/03/27 10:51:37;;;;;;;5.22;1.23;;;;;;;10.21;24.43;98052.97;5008821;28;20056;-68
2022/03/27 10:54:18;;;;;;;4.75;1.23;;;;;;;9.82;25.18;98079.19;4976830;28;20128;-68
2022/03/27 10:56:48;;;;;;;2.00;1.20;;;;;;;9.56;25.88;98047.13;4976560;28;20046;-69
2022/03/27 10:59:17;;;;;;;2.22;1.50;;;;;;;9.92;25.57;98053.16;4976427;28;20065;-69
2022/03/27 11:01:44;;;;;;;3.38;1.02;;;;;;;10.12;24.39;98080.69;4976162;28;20493;-69
2022/03/27 11:04:15;;;;;;;2.22;1.00;;;;;;;9.58;24.65;98097.31;5009077;28;20081;-69
2022/03/27 11:06:46;;;;;;;7.38;1.20;;;;;;;8.80;28.01;98107.81;4975803;28;20038;-72
2022/03/27 11:09:31;;;;;;;3.92;1.30;;;;;;;8.37;29.58;98105.97;5003381;28;20541;-73
2022/03/27 11:11:57;;;;;;;2.47;1.50;;;;;;;8.08;30.86;98082.13;4987976;28;20038;-70
2022/03/27 11:14:52;;;;;;;4.33;1.20;;;;;;;8.32;29.94;98108.34;5007951;28;20123;-72
2022/03/27 11:17:44;;;;;;;1.43;1.00;;;;;;;8.16;28.73;98113.78;4960106;28;20034;-71
2022/03/27 11:20:22;;;;;;;2.33;1.20;;;;;;;8.19;28.87;98121.34;4994746;28;20053;-72
2022/03/27 11:22:55;;;;;;;3.27;1.07;;;;;;;7.78;29.10;98107.66;4995372;28;20041;-73
2022/03/27 11:25:41;;;;;;;8.13;1.37;;;;;;;7.42;30.24;98125.09;4964003;28;20045;-70
2022/03/27 11:28:13;;;;;;;3.20;1.77;;;;;;;7.13;30.86;98137.31;5012115;28;20044;-71
2022/03/27 11:30:59;;;;;;;3.23;1.40;;;;;;;7.02;31.46;98132.41;4995648;28;20054;-73
2022/03/27 11:33:30;;;;;;;3.63;1.50;;;;;;;6.76;31.50;98151.97;5012193;28;20596;-72
2022/03/27 11:36:04;;;;;;;3.97;2.42;;;;;;;6.46;31.63;98150.09;4979634;28;20041;-72
2022/03/27 11:38:35;;;;;;;3.40;1.77;;;;;;;6.38;32.34;98138.75;5010416;28;20053;-70
2022/03/27 11:41:24;;;;;;;2.00;1.50;;;;;;;6.58;31.65;98156.63;5028483;28;20049;-70
2022/03/27 11:43:50;;;;;;;5.57;1.60;;;;;;;6.56;30.83;98161.28;4979556;28;20048;-68
2022/03/27 11:46:27;;;;;;;5.13;1.70;;;;;;;6.85;29.74;98153.59;5012184;28;20042;-69
2022/03/27 11:48:54;;;;;;;2.73;1.27;;;;;;;6.75;29.29;98171.44;4979843;28;20048;-68
2022/03/27 11:51:20;;;;;;;4.53;1.33;;;;;;;6.64;29.32;98174.41;5011857;28;20068;-72